Time;durP1;ratioP1;P1;durP2;ratioP2;P2;SDS_P1;SDS_P2;PMS_P1;PMS_P2;Temp;Humidity;BMP_temperature;BMP_pressure;BME280_temperature;BME280_humidity;BME280_pressure;Samples;Min_cycle;Max_cycle;Signal;HPM_P1;HPM_P2
2022/02/08 00:00:41;;;;;;;52.75;10.85;;;7.60;99.90;;;;;;5028093;28;25090;-68
2022/02/08 00:03:08;;;;;;;49.63;10.75;;;7.60;99.90;;;;;;5030265;28;25138;-66
2022/02/08 00:05:36;;;;;;;52.83;11.68;;;7.60;99.90;;;;;;5032172;28;25122;-66
2022/02/08 00:08:01;;;;;;;60.47;10.90;;;7.60;99.90;;;;;;5029865;28;25122;-67
2022/02/08 00:10:28;;;;;;;55.00;11.77;;;7.70;99.90;;;;;;5019432;28;25102;-65
2022/02/08 00:12:54;;;;;;;49.53;11.65;;;7.60;99.90;;;;;;5033172;28;25133;-67
2022/02/08 00:15:20;;;;;;;60.72;12.98;;;7.70;99.90;;;;;;5048263;28;25072;-66
2022/02/08 00:17:46;;;;;;;46.50;10.80;;;7.70;99.90;;;;;;5048776;28;25121;-66
2022/02/08 00:20:12;;;;;;;47.05;12.02;;;7.70;99.90;;;;;;5033868;28;25058;-67
2022/02/08 00:22:37;;;;;;;46.45;11.70;;;7.70;99.90;;;;;;5026832;28;25066;-68
2022/02/08 00:25:05;;;;;;;56.97;14.18;;;7.70;99.90;;;;;;5009669;28;25073;-65
2022/02/08 00:27:30;;;;;;;40.65;12.38;;;7.80;99.90;;;;;;5010213;28;25108;-67
2022/02/08 00:29:56;;;;;;;46.20;14.63;;;7.80;99.90;;;;;;4992298;28;25092;-67
2022/02/08 00:32:22;;;;;;;49.63;12.52;;;7.80;99.90;;;;;;5010438;28;25121;-66
2022/02/08 00:34:48;;;;;;;41.33;12.50;;;7.90;99.90;;;;;;5011149;28;25111;-66
2022/02/08 00:37:14;;;;;;;38.33;13.02;;;7.90;99.90;;;;;;5013824;28;25052;-66
2022/02/08 00:39:40;;;;;;;39.30;13.20;;;7.90;99.90;;;;;;5009677;28;25064;-67
2022/02/08 00:42:08;;;;;;;44.30;12.20;;;7.90;99.90;;;;;;5040062;28;25144;-68
2022/02/08 00:45:09;;;;;;;50.17;11.23;;;7.90;99.90;;;;;;5030516;28;25095;-68
2022/02/08 00:49:49;;;;;;;48.50;12.07;;;7.90;99.90;;;;;;5018470;28;25070;-66
2022/02/08 00:52:15;;;;;;;36.75;11.52;;;7.90;99.90;;;;;;5028785;28;25077;-66
2022/02/08 00:54:43;;;;;;;40.90;11.35;;;7.90;99.90;;;;;;5058721;28;25077;-66
2022/02/08 00:57:09;;;;;;;36.40;11.32;;;8.00;99.90;;;;;;5059627;28;25046;-65
2022/02/08 00:59:35;;;;;;;37.78;12.05;;;8.00;99.90;;;;;;5038521;28;25073;-68
2022/02/08 01:02:01;;;;;;;33.30;12.27;;;8.00;99.90;;;;;;5036075;28;25114;-66
2022/02/08 01:04:26;;;;;;;37.95;15.30;;;8.00;99.90;;;;;;5021644;28;25086;-67
2022/02/08 01:06:54;;;;;;;46.42;17.08;;;8.00;99.90;;;;;;5029091;28;25072;-67
2022/02/08 01:09:28;;;;;;;52.00;17.98;;;8.00;99.90;;;;;;5028758;28;25140;-67
2022/02/08 01:11:55;;;;;;;47.30;18.17;;;8.00;99.90;;;;;;5028447;28;25099;-66
2022/02/08 01:14:23;;;;;;;53.15;19.10;;;7.90;99.90;;;;;;5010844;28;25101;-68
2022/02/08 01:16:50;;;;;;;49.13;18.38;;;7.90;99.90;;;;;;5009237;28;25131;-68
2022/02/08 01:19:18;;;;;;;51.88;19.75;;;8.00;99.90;;;;;;5016548;28;25081;-68
2022/02/08 01:21:44;;;;;;;44.97;19.98;;;8.00;99.90;;;;;;5014001;28;25127;-68
2022/02/08 01:24:09;;;;;;;53.13;17.92;;;8.00;99.90;;;;;;5014084;28;25083;-67
2022/02/08 01:26:44;;;;;;;43.65;19.30;;;7.90;99.90;;;;;;5028423;28;25083;-65
2022/02/08 01:29:28;;;;;;;53.38;18.30;;;7.90;99.90;;;;;;5025414;28;25060;-66
2022/02/08 01:31:54;;;;;;;44.78;19.00;;;8.00;99.90;;;;;;5012530;28;25055;-67
2022/02/08 01:34:37;;;;;;;54.78;19.60;;;8.00;99.90;;;;;;5031919;28;25073;-67
2022/02/08 01:39:39;;;;;;;53.53;18.38;;;8.00;99.90;;;;;;5014727;28;25090;-67
2022/02/08 01:44:59;;;;;;;46.13;17.52;;;8.00;99.90;;;;;;5015310;28;25175;-68
2022/02/08 01:47:31;;;;;;;44.95;16.83;;;8.00;99.90;;;;;;5009761;28;25059;-67
2022/02/08 01:50:10;;;;;;;48.35;16.92;;;8.00;99.90;;;;;;5010339;28;25101;-67
2022/02/08 01:52:37;;;;;;;59.13;17.67;;;8.00;99.90;;;;;;5011075;28;25053;-67
2022/02/08 01:55:03;;;;;;;47.00;18.30;;;8.00;99.90;;;;;;5008117;28;25047;-67
2022/02/08 01:57:29;;;;;;;52.20;18.25;;;8.00;99.90;;;;;;5008676;28;25077;-67
2022/02/08 01:59:55;;;;;;;54.13;18.80;;;8.00;99.90;;;;;;4990004;28;25055;-67
2022/02/08 02:02:20;;;;;;;44.58;18.02;;;8.10;99.90;;;;;;5008478;28;25082;-67
2022/02/08 02:04:47;;;;;;;45.35;17.92;;;8.10;99.90;;;;;;5018274;28;25101;-68
2022/02/08 02:07:13;;;;;;;51.55;20.90;;;8.10;99.90;;;;;;5010475;28;25130;-66
2022/02/08 02:09:44;;;;;;;47.67;19.35;;;8.20;99.90;;;;;;5027447;28;25069;-66
2022/02/08 02:12:10;;;;;;;51.85;19.23;;;8.20;99.90;;;;;;5028859;28;25150;-66
2022/02/08 02:14:37;;;;;;;49.05;18.45;;;8.20;99.90;;;;;;5010485;28;25124;-68
2022/02/08 02:17:04;;;;;;;48.50;17.98;;;8.20;99.90;;;;;;5030510;28;25084;-67
2022/02/08 02:19:30;;;;;;;50.20;19.20;;;8.30;99.90;;;;;;4992168;28;25066;-68
2022/02/08 02:21:58;;;;;;;49.10;18.70;;;8.40;99.90;;;;;;5010091;28;25145;-66
2022/02/08 02:24:24;;;;;;;48.30;19.73;;;8.40;99.90;;;;;;5009287;28;25112;-67
2022/02/08 02:26:50;;;;;;;45.88;19.77;;;8.40;99.90;;;;;;5009004;28;25102;-66
2022/02/08 02:29:17;;;;;;;54.22;21.98;;;8.40;99.90;;;;;;5008518;28;25077;-66
2022/02/08 02:31:44;;;;;;;53.17;23.38;;;8.40;99.90;;;;;;5008472;28;25131;-66
2022/02/08 02:34:10;;;;;;;55.85;23.02;;;8.40;99.90;;;;;;5024870;28;25139;-66
2022/02/08 02:36:39;;;;;;;53.92;23.30;;;8.40;99.90;;;;;;5027395;28;25062;-69
2022/02/08 02:39:05;;;;;;;60.75;23.08;;;8.50;99.90;;;;;;4995430;28;25055;-68
2022/02/08 02:41:35;;;;;;;53.97;22.60;;;8.50;99.90;;;;;;5007605;28;25072;-67
2022/02/08 02:44:04;;;;;;;44.83;21.95;;;8.50;99.90;;;;;;5008376;28;25076;-69
2022/02/08 02:46:30;;;;;;;50.45;23.13;;;8.50;99.90;;;;;;5008280;28;25077;-68
2022/02/08 02:48:55;;;;;;;50.45;20.77;;;8.50;99.90;;;;;;5024097;28;25075;-66
2022/02/08 02:51:23;;;;;;;52.10;22.85;;;8.50;99.90;;;;;;5029510;28;25072;-67
2022/02/08 02:53:49;;;;;;;52.25;23.35;;;8.50;99.90;;;;;;5019957;28;25059;-68
2022/02/08 02:56:15;;;;;;;47.17;22.65;;;8.60;99.90;;;;;;5025177;28;25086;-68
2022/02/08 02:58:40;;;;;;;56.53;22.23;;;8.50;99.90;;;;;;5028293;28;25086;-68
2022/02/08 03:01:20;;;;;;;48.05;22.55;;;8.50;99.90;;;;;;5028341;28;25111;-67
2022/02/08 03:03:55;;;;;;;60.22;23.52;;;8.60;99.90;;;;;;5013281;28;25094;-68
2022/02/08 03:19:54;;;;;;;61.78;24.27;;;8.70;99.90;;;;;;4991241;28;25050;-68
2022/02/08 03:22:20;;;;;;;52.35;23.83;;;8.70;99.90;;;;;;4984086;28;25113;-68
2022/02/08 03:24:46;;;;;;;50.92;24.17;;;8.70;99.90;;;;;;5026499;28;25071;-69
2022/02/08 03:27:11;;;;;;;53.50;23.25;;;8.70;99.90;;;;;;5026200;28;25064;-68
2022/02/08 03:29:37;;;;;;;53.45;23.83;;;8.70;99.90;;;;;;5025835;28;25100;-67
2022/02/08 03:32:03;;;;;;;50.83;22.75;;;8.70;99.90;;;;;;5000015;28;25049;-68
2022/02/08 03:34:28;;;;;;;52.20;22.55;;;8.70;99.90;;;;;;5007811;28;25078;-67
2022/02/08 03:36:54;;;;;;;54.78;22.92;;;8.70;99.90;;;;;;5006806;28;25057;-66
2022/02/08 03:39:29;;;;;;;59.83;22.67;;;8.70;99.90;;;;;;4989326;28;25073;-68
2022/02/08 03:42:05;;;;;;;56.20;22.70;;;8.70;99.90;;;;;;5024219;28;25132;-68
2022/02/08 03:44:32;;;;;;;49.65;20.52;;;8.70;99.90;;;;;;5027209;28;25161;-67
2022/02/08 03:47:04;;;;;;;44.78;21.58;;;8.70;99.90;;;;;;5027721;28;25066;-68
2022/02/08 03:49:29;;;;;;;44.70;20.27;;;8.70;99.90;;;;;;5019875;28;25070;-68
2022/02/08 03:51:59;;;;;;;44.15;21.02;;;8.70;99.90;;;;;;5008098;28;25073;-68
2022/02/08 03:54:25;;;;;;;51.63;20.92;;;8.70;99.90;;;;;;5014449;28;25091;-67
2022/02/08 03:56:50;;;;;;;45.63;19.23;;;8.70;99.90;;;;;;5028541;28;25101;-68
2022/02/08 03:59:16;;;;;;;38.65;18.60;;;8.70;99.90;;;;;;5012138;28;25072;-68
2022/02/08 04:02:10;;;;;;;41.55;18.65;;;8.70;99.90;;;;;;5028072;28;25071;-68
2022/02/08 04:04:34;;;;;;;33.97;17.17;;;8.80;99.90;;;;;;5024755;28;25070;-68
2022/02/08 04:07:07;;;;;;;41.50;18.53;;;8.70;99.90;;;;;;5013796;28;25143;-67
2022/02/08 04:09:32;;;;;;;41.45;18.08;;;8.70;99.90;;;;;;4989107;28;25128;-68
2022/02/08 04:12:03;;;;;;;42.20;18.90;;;8.70;99.90;;;;;;5008738;28;25053;-68
2022/02/08 04:14:37;;;;;;;33.20;15.93;;;8.70;99.90;;;;;;5007331;28;25060;-68
2022/02/08 04:17:18;;;;;;;42.00;19.05;;;8.80;99.90;;;;;;5011967;28;25062;-67
2022/02/08 04:20:12;;;;;;;38.47;15.77;;;8.80;99.90;;;;;;5011131;28;25129;-69
2022/02/08 04:41:25;;;;;;;41.78;18.83;;;8.80;99.90;;;;;;5010814;28;25162;-67
2022/02/08 04:44:00;;;;;;;31.98;17.05;;;8.80;99.90;;;;;;5011604;28;25165;-69
2022/02/08 04:48:56;;;;;;;33.80;16.77;;;8.80;99.90;;;;;;5010915;28;25067;-69
2022/02/08 04:51:30;;;;;;;32.50;16.42;;;8.80;99.90;;;;;;4993068;28;25065;-70
2022/02/08 04:56:40;;;;;;;31.42;15.07;;;8.80;99.90;;;;;;5020539;28;25089;-69
2022/02/08 05:34:48;;;;;;;23.33;5.90;;;8.80;99.90;;;;;;5021604;28;25075;-68
2022/02/08 05:40:49;;;;;;;20.50;4.15;;;8.80;99.90;;;;;;5028452;28;25138;-67
2022/02/08 05:45:29;;;;;;;27.75;4.65;;;8.80;99.90;;;;;;5042934;28;25062;-68
2022/02/08 05:47:58;;;;;;;18.15;4.45;;;8.80;99.90;;;;;;5021770;28;25054;-68
2022/02/08 05:53:06;;;;;;;21.98;4.05;;;8.80;99.90;;;;;;5022638;28;25083;-68
2022/02/08 05:55:35;;;;;;;19.77;3.83;;;8.80;99.90;;;;;;5016205;28;25138;-69
2022/02/08 05:58:01;;;;;;;24.10;3.95;;;8.90;99.90;;;;;;5021540;28;25059;-68
2022/02/08 06:00:28;;;;;;;24.55;4.28;;;8.90;99.90;;;;;;5028149;28;25148;-67
2022/02/08 06:03:04;;;;;;;22.63;4.07;;;8.90;99.90;;;;;;5015852;28;25053;-67
2022/02/08 06:05:29;;;;;;;17.20;4.00;;;8.90;99.90;;;;;;5011625;28;25073;-67
2022/02/08 06:07:55;;;;;;;19.88;4.40;;;9.00;99.90;;;;;;5029427;28;25044;-67
2022/02/08 06:10:20;;;;;;;21.45;3.95;;;9.00;99.90;;;;;;5028593;28;25118;-69
2022/02/08 06:12:52;;;;;;;21.63;4.25;;;9.00;99.90;;;;;;5014124;28;25058;-67
2022/02/08 06:15:21;;;;;;;19.13;4.78;;;9.00;99.90;;;;;;5032407;28;25095;-68
2022/02/08 06:17:47;;;;;;;17.42;3.80;;;9.00;99.90;;;;;;5011456;28;25068;-69
2022/02/08 06:20:13;;;;;;;22.02;4.18;;;9.00;99.90;;;;;;5032025;28;25063;-69
2022/02/08 06:22:43;;;;;;;17.58;3.85;;;9.00;99.90;;;;;;5026922;28;25126;-69
2022/02/08 06:25:13;;;;;;;15.48;3.78;;;9.10;99.90;;;;;;5022332;28;25127;-70
2022/02/08 06:27:40;;;;;;;22.90;3.38;;;9.10;99.90;;;;;;5028831;28;25111;-67
2022/02/08 06:30:06;;;;;;;16.33;3.88;;;9.10;99.90;;;;;;5007172;28;25119;-69
2022/02/08 06:32:33;;;;;;;18.65;3.55;;;9.10;99.90;;;;;;5023637;28;25062;-69
2022/02/08 06:35:01;;;;;;;16.48;3.42;;;9.20;99.90;;;;;;5025682;28;25052;-66
2022/02/08 06:37:31;;;;;;;19.23;3.15;;;9.20;99.90;;;;;;5030560;28;25069;-68
2022/02/08 06:39:57;;;;;;;17.85;3.40;;;9.20;99.90;;;;;;5013439;28;25076;-69
2022/02/08 06:42:22;;;;;;;20.08;3.25;;;9.20;99.90;;;;;;5030592;28;25081;-68
2022/02/08 06:44:48;;;;;;;16.63;3.20;;;9.20;99.90;;;;;;5028922;28;25134;-67
2022/02/08 06:47:15;;;;;;;18.25;3.95;;;9.20;99.90;;;;;;5014098;28;25052;-68
2022/02/08 06:49:40;;;;;;;17.02;3.42;;;9.20;99.90;;;;;;5027881;28;25064;-69
2022/02/08 06:52:06;;;;;;;16.63;3.80;;;9.30;99.90;;;;;;5028225;28;25054;-68
2022/02/08 06:54:31;;;;;;;10.98;2.53;;;9.30;99.90;;;;;;5028194;28;25064;-69
2022/02/08 06:56:57;;;;;;;16.55;2.40;;;9.30;99.90;;;;;;5012237;28;25056;-70
2022/02/08 06:59:23;;;;;;;12.45;3.05;;;9.30;99.90;;;;;;5027991;28;25108;-67
2022/02/08 07:01:48;;;;;;;15.55;3.47;;;9.30;99.90;;;;;;5005061;28;25065;-69
2022/02/08 07:04:15;;;;;;;13.93;2.70;;;9.30;99.90;;;;;;4999342;28;25079;-69
2022/02/08 07:06:44;;;;;;;17.10;2.58;;;9.40;99.90;;;;;;5009846;28;25081;-68
2022/02/08 07:09:11;;;;;;;18.45;2.85;;;9.40;99.90;;;;;;5019873;28;25173;-69
2022/02/08 07:11:38;;;;;;;13.25;2.75;;;9.30;99.90;;;;;;5024108;28;25090;-68
2022/02/08 07:14:05;;;;;;;17.55;2.85;;;9.30;99.90;;;;;;5021753;28;25170;-70
2022/02/08 07:16:31;;;;;;;13.13;2.20;;;9.30;99.90;;;;;;5006524;28;25052;-67
2022/02/08 07:18:57;;;;;;;12.25;2.65;;;9.30;99.90;;;;;;5018475;28;25070;-69
2022/02/08 07:21:23;;;;;;;15.80;3.45;;;9.30;99.90;;;;;;5024065;28;25138;-69
2022/02/08 07:23:49;;;;;;;14.23;3.17;;;9.40;99.90;;;;;;5022767;28;25050;-70
2022/02/08 07:26:15;;;;;;;16.08;2.58;;;9.40;99.90;;;;;;5024090;28;25104;-69
2022/02/08 07:28:43;;;;;;;12.80;3.22;;;9.40;99.90;;;;;;5024738;28;25189;-71
2022/02/08 07:31:22;;;;;;;11.93;2.42;;;9.40;99.90;;;;;;5023173;28;25065;-68
2022/02/08 07:34:00;;;;;;;10.35;2.30;;;9.40;99.90;;;;;;5009823;28;25079;-67
2022/02/08 07:36:48;;;;;;;12.10;2.42;;;9.40;99.90;;;;;;5004040;28;25069;-67
2022/02/08 07:39:24;;;;;;;15.40;2.47;;;9.40;99.90;;;;;;5010214;28;25115;-69
2022/02/08 07:41:50;;;;;;;20.42;2.90;;;9.40;99.90;;;;;;5005184;28;25149;-71
2022/02/08 07:44:15;;;;;;;14.50;3.25;;;9.40;99.90;;;;;;5011559;28;25167;-67
2022/02/08 07:46:41;;;;;;;11.80;3.38;;;9.40;99.90;;;;;;5023886;28;25074;-69
2022/02/08 07:49:06;;;;;;;16.90;3.35;;;9.40;99.90;;;;;;5005308;28;25057;-69
2022/02/08 07:51:35;;;;;;;15.35;3.13;;;9.40;99.90;;;;;;5023567;28;25097;-67
2022/02/08 07:54:02;;;;;;;14.60;3.58;;;9.40;99.90;;;;;;5024229;28;25042;-68
2022/02/08 07:56:27;;;;;;;12.30;2.30;;;9.40;99.90;;;;;;5023288;28;25132;-67
2022/02/08 07:58:54;;;;;;;16.00;2.47;;;9.40;99.90;;;;;;5006256;28;25110;-68
2022/02/08 08:01:19;;;;;;;12.10;2.42;;;9.40;99.90;;;;;;5026527;28;25049;-66
2022/02/08 08:03:45;;;;;;;14.05;2.55;;;9.40;99.90;;;;;;5026604;28;25120;-69
2022/02/08 08:06:14;;;;;;;13.13;2.78;;;9.50;99.90;;;;;;5025222;28;25072;-70
2022/02/08 08:08:40;;;;;;;10.73;2.75;;;9.50;99.90;;;;;;5007040;28;25095;-67
2022/02/08 08:11:14;;;;;;;17.85;2.85;;;9.50;99.90;;;;;;5022813;28;25079;-70
2022/02/08 08:13:48;;;;;;;13.02;2.70;;;9.50;99.90;;;;;;5011135;28;25064;-69
2022/02/08 08:16:25;;;;;;;10.73;2.70;;;9.50;99.90;;;;;;4996665;28;25067;-68
2022/02/08 08:21:35;;;;;;;11.77;2.50;;;9.60;99.90;;;;;;5011049;28;25073;-66
2022/02/08 08:24:02;;;;;;;13.75;4.10;;;9.60;99.90;;;;;;5011018;28;25138;-69
2022/02/08 08:26:27;;;;;;;20.17;2.80;;;9.60;99.90;;;;;;5010857;28;25068;-67
2022/02/08 08:28:53;;;;;;;13.05;2.33;;;9.60;99.90;;;;;;5010879;28;25157;-67
2022/02/08 08:31:19;;;;;;;17.10;2.63;;;9.60;99.90;;;;;;5014261;28;25070;-68
2022/02/08 08:33:45;;;;;;;14.43;2.88;;;9.70;99.90;;;;;;5003180;28;25071;-69
2022/02/08 08:36:11;;;;;;;11.85;3.00;;;9.70;99.90;;;;;;5021762;28;25079;-69
2022/02/08 08:38:37;;;;;;;15.48;2.58;;;9.70;99.90;;;;;;5015325;28;25060;-69
2022/02/08 08:49:49;;;;;;;14.02;2.67;;;9.80;99.90;;;;;;5024373;28;25060;-67
2022/02/08 08:52:28;;;;;;;17.38;2.78;;;9.90;99.90;;;;;;5008613;28;25105;-68
2022/02/08 08:54:53;;;;;;;10.50;2.28;;;10.00;99.90;;;;;;5012663;28;25127;-68
2022/02/08 08:57:19;;;;;;;13.60;2.22;;;10.00;99.90;;;;;;5008311;28;25057;-68
2022/02/08 08:59:44;;;;;;;15.57;3.00;;;10.00;99.90;;;;;;5005515;28;25058;-70
2022/02/08 09:02:10;;;;;;;10.15;2.33;;;10.00;99.90;;;;;;5007789;28;25122;-67
2022/02/08 09:04:40;;;;;;;14.38;2.88;;;10.00;99.90;;;;;;5008676;28;25059;-71
2022/02/08 09:07:06;;;;;;;13.35;2.60;;;10.00;99.90;;;;;;5010911;28;25056;-69
2022/02/08 09:09:34;;;;;;;13.02;2.55;;;10.10;99.90;;;;;;5018463;28;25052;-67
2022/02/08 09:12:25;;;;;;;15.07;1.98;;;10.10;99.90;;;;;;5001734;28;25150;-69
2022/02/08 09:25:44;;;;;;;21.27;3.63;;;10.20;99.90;;;;;;5005864;28;25086;-66
2022/02/08 09:30:59;;;;;;;10.80;2.33;;;10.40;99.90;;;;;;5024812;28;25113;-67
2022/02/08 09:33:25;;;;;;;13.67;2.77;;;10.50;99.90;;;;;;5009171;28;25137;-68
2022/02/08 09:35:51;;;;;;;15.98;3.30;;;10.50;99.90;;;;;;5006930;28;25116;-68
2022/02/08 09:38:20;;;;;;;11.85;1.95;;;10.50;99.90;;;;;;5027284;28;25059;-66
2022/02/08 09:40:47;;;;;;;12.00;2.58;;;10.60;99.90;;;;;;5029637;28;25163;-68
2022/02/08 09:43:14;;;;;;;12.13;2.58;;;10.70;99.90;;;;;;5008654;28;25138;-67
2022/02/08 09:45:48;;;;;;;11.90;2.47;;;10.60;99.90;;;;;;5009939;28;25073;-67
2022/02/08 09:48:24;;;;;;;12.02;2.58;;;10.70;99.90;;;;;;5025527;28;25155;-67
2022/02/08 09:50:51;;;;;;;11.55;3.20;;;10.70;99.90;;;;;;5012560;28;25047;-68
2022/02/08 09:53:29;;;;;;;18.15;2.60;;;10.70;99.90;;;;;;5027133;28;25075;-68
2022/02/08 09:55:55;;;;;;;7.63;1.92;;;10.70;99.90;;;;;;5015256;28;25059;-68
2022/02/08 09:58:20;;;;;;;8.48;1.90;;;10.70;99.90;;;;;;5044553;28;25068;-69
2022/02/08 10:00:46;;;;;;;8.13;2.28;;;10.80;99.90;;;;;;5043723;28;25090;-69
2022/02/08 10:03:16;;;;;;;10.05;2.10;;;10.70;99.90;;;;;;5028203;28;25052;-67
2022/02/08 10:05:47;;;;;;;18.70;3.35;;;10.80;99.90;;;;;;5028764;28;25101;-68
2022/02/08 10:08:14;;;;;;;11.70;2.30;;;10.80;99.90;;;;;;5019626;28;25085;-68
2022/02/08 10:10:40;;;;;;;9.10;1.73;;;10.80;99.90;;;;;;5016597;28;25133;-67
2022/02/08 10:21:55;;;;;;;11.52;2.78;;;10.80;99.90;;;;;;5020235;28;25102;-72
2022/02/08 10:24:01;;;;;;;16.05;2.58;;;10.80;99.90;;;;;;5014597;28;25078;-70
2022/02/08 10:40:07;;;;;;;13.70;2.28;;;10.90;99.90;;;;;;5029016;28;24091;-70
2022/02/08 10:42:33;;;;;;;10.45;2.70;;;10.90;99.90;;;;;;5022990;28;25076;-65
2022/02/08 10:45:00;;;;;;;9.80;2.50;;;10.90;99.90;;;;;;5023786;28;25063;-65
2022/02/08 10:47:40;;;;;;;9.63;1.90;;;11.00;99.90;;;;;;5034575;28;25111;-69
2022/02/08 10:50:09;;;;;;;9.25;2.50;;;11.10;99.90;;;;;;5026890;28;25055;-67
2022/02/08 10:52:38;;;;;;;14.65;2.28;;;11.00;99.90;;;;;;5046076;28;25057;-67
2022/02/08 10:55:15;;;;;;;13.93;2.55;;;11.00;99.90;;;;;;5044646;28;25055;-67
2022/02/08 10:57:59;;;;;;;11.20;2.30;;;11.00;99.90;;;;;;5008376;28;25075;-68
2022/02/08 11:00:37;;;;;;;9.63;2.13;;;11.00;99.90;;;;;;5011196;28;25072;-70
2022/02/08 11:03:07;;;;;;;6.70;1.88;;;11.00;99.90;;;;;;5011181;28;25049;-67
2022/02/08 11:05:51;;;;;;;10.65;2.10;;;11.00;99.90;;;;;;4992323;28;25103;-69
2022/02/08 11:08:29;;;;;;;10.65;2.85;;;11.10;99.90;;;;;;5008081;28;25064;-67
2022/02/08 11:11:11;;;;;;;10.55;1.92;;;11.10;99.90;;;;;;4991387;28;25075;-68
2022/02/08 11:14:17;;;;;;;12.48;2.58;;;11.10;99.90;;;;;;4990212;28;25077;-68
2022/02/08 11:16:43;;;;;;;7.57;1.75;;;11.20;99.90;;;;;;5003663;28;25115;-65
2022/02/08 11:19:23;;;;;;;15.30;2.45;;;11.20;99.90;;;;;;5014410;28;25159;-69
2022/02/08 11:22:12;;;;;;;11.82;2.00;;;11.20;99.90;;;;;;5012794;28;25154;-68
2022/02/08 11:24:50;;;;;;;11.60;2.15;;;11.20;99.90;;;;;;5026704;28;25129;-66
2022/02/08 11:27:19;;;;;;;15.48;2.28;;;11.30;99.90;;;;;;5027303;28;25055;-67
2022/02/08 11:30:03;;;;;;;11.55;2.65;;;11.30;99.90;;;;;;5026078;28;25062;-67
2022/02/08 11:32:54;;;;;;;13.07;2.17;;;11.30;99.90;;;;;;5029387;28;25091;-67
2022/02/08 11:44:07;;;;;;;7.88;1.90;;;11.20;99.90;;;;;;5027441;28;25155;-68
2022/02/08 11:46:56;;;;;;;9.70;1.88;;;11.30;99.90;;;;;;5014353;28;25060;-67
2022/02/08 11:49:40;;;;;;;15.95;2.38;;;11.30;99.90;;;;;;5012232;28;25085;-67
2022/02/08 11:55:05;;;;;;;9.38;1.90;;;11.30;99.90;;;;;;5032470;28;25064;-68
2022/02/08 12:07:47;;;;;;;13.15;2.53;;;11.30;99.90;;;;;;5033554;28;25101;-67
2022/02/08 12:13:06;;;;;;;12.65;3.05;;;11.40;99.90;;;;;;5021309;28;25066;-66
2022/02/08 13:00:19;;;;;;;10.00;2.28;;;11.60;99.90;;;;;;5011173;28;25078;-67
2022/02/08 13:32:28;;;;;;;14.43;2.05;;;11.60;99.90;;;;;;5010884;28;25112;-68
2022/02/08 14:16:43;;;;;;;21.42;2.40;;;11.50;99.90;;;;;;5028284;28;25074;-70
2022/02/08 14:21:23;;;;;;;8.98;2.10;;;11.50;99.90;;;;;;5010245;28;25104;-69
2022/02/08 14:24:14;;;;;;;6.55;1.92;;;11.50;99.90;;;;;;4991831;28;25061;-74
2022/02/08 15:00:05;;;;;;;6.53;1.75;;;11.30;99.90;;;;;;5030199;28;25070;-70
2022/02/08 15:07:34;;;;;;;11.65;1.75;;;11.10;99.90;;;;;;5022343;28;25066;-69
2022/02/08 15:10:01;;;;;;;7.22;1.58;;;11.10;99.90;;;;;;5009513;28;25063;-68
2022/02/08 15:12:32;;;;;;;9.45;1.60;;;11.10;99.90;;;;;;5008157;28;25126;-69
2022/02/08 15:17:29;;;;;;;4.80;1.33;;;11.00;99.90;;;;;;5037742;28;25109;-70
2022/02/08 15:19:58;;;;;;;8.77;1.35;;;11.00;99.90;;;;;;5018719;28;25138;-70
2022/02/08 15:22:23;;;;;;;9.40;1.45;;;11.00;99.90;;;;;;5028537;28;25095;-70
2022/02/08 15:24:49;;;;;;;7.35;2.03;;;11.00;99.90;;;;;;5017760;28;25066;-69
2022/02/08 15:27:15;;;;;;;7.05;1.60;;;10.90;99.90;;;;;;5011175;28;25130;-71
2022/02/08 15:29:41;;;;;;;9.30;1.33;;;10.80;99.90;;;;;;4989893;28;25133;-69
2022/02/08 15:32:14;;;;;;;6.63;1.55;;;10.80;99.90;;;;;;5007793;28;25085;-68
2022/02/08 15:34:40;;;;;;;8.80;2.15;;;10.90;99.90;;;;;;5027414;28;25120;-70
2022/02/08 15:37:05;;;;;;;11.43;1.80;;;10.80;99.90;;;;;;5008493;28;25050;-70
2022/02/08 15:39:32;;;;;;;5.15;1.75;;;10.90;99.90;;;;;;5027460;28;25100;-69
2022/02/08 15:41:58;;;;;;;8.75;1.20;;;10.90;99.90;;;;;;5007400;28;25151;-70
2022/02/08 15:44:25;;;;;;;7.38;1.70;;;10.90;99.90;;;;;;5020314;28;25094;-70
2022/02/08 15:46:52;;;;;;;4.25;1.83;;;11.00;99.90;;;;;;5026948;28;25065;-70
2022/02/08 15:49:18;;;;;;;6.40;2.17;;;10.90;99.90;;;;;;5022509;28;25106;-70
2022/02/08 15:51:46;;;;;;;7.78;2.20;;;11.00;99.90;;;;;;5021140;28;25089;-70
2022/02/08 16:09:56;;;;;;;4.68;1.15;;;10.90;99.90;;;;;;5026832;28;25100;-68
2022/02/08 16:12:39;;;;;;;11.85;1.90;;;10.80;99.90;;;;;;5026669;28;25143;-68
2022/02/08 16:28:41;;;;;;;4.18;1.23;;;10.60;99.90;;;;;;5017547;28;25100;-68
2022/02/08 16:49:42;;;;;;;6.30;1.30;;;10.40;99.90;;;;;;5033594;28;25062;-69
2022/02/08 16:52:46;;;;;;;2.85;1.23;;;10.40;99.90;;;;;;5006214;28;25064;-68
2022/02/08 17:00:30;;;;;;;11.52;2.60;;;10.20;99.90;;;;;;5022783;28;25112;-69
2022/02/08 17:03:01;;;;;;;7.30;1.50;;;10.20;99.90;;;;;;5005820;28;25053;-68
2022/02/08 17:05:27;;;;;;;11.32;2.22;;;10.20;99.90;;;;;;5024143;28;25132;-68
2022/02/08 17:07:53;;;;;;;6.15;1.42;;;10.20;99.90;;;;;;5024091;28;25081;-69
2022/02/08 17:13:14;;;;;;;13.15;3.10;;;10.10;99.90;;;;;;5021359;28;25076;-72
2022/02/08 17:18:53;;;;;;;8.90;1.70;;;10.00;99.90;;;;;;5021332;28;25107;-68
2022/02/08 17:44:56;;;;;;;9.80;2.17;;;10.10;99.90;;;;;;5027240;28;25075;-70
2022/02/08 17:46:04;;;;;;;12.90;2.08;;;10.10;99.90;;;;;;5028044;28;25134;-70
2022/02/08 17:48:33;;;;;;;8.23;1.88;;;10.10;99.90;;;;;;5023358;28;25077;-69
2022/02/08 17:50:59;;;;;;;6.05;1.98;;;10.20;99.90;;;;;;5016744;28;25117;-70
2022/02/08 17:53:25;;;;;;;11.60;2.10;;;10.20;99.90;;;;;;5018839;28;25103;-68
2022/02/08 17:55:51;;;;;;;9.75;1.80;;;10.10;99.90;;;;;;5038000;28;25115;-69
2022/02/08 17:58:18;;;;;;;9.40;2.78;;;10.20;99.90;;;;;;5018002;28;25095;-69
2022/02/08 18:00:44;;;;;;;9.07;1.92;;;10.20;99.90;;;;;;5008653;28;25079;-68
2022/02/08 18:03:12;;;;;;;10.23;1.80;;;10.10;99.90;;;;;;5009963;28;25092;-69
2022/02/08 18:05:38;;;;;;;8.45;1.92;;;10.10;99.90;;;;;;4989762;28;25054;-72
2022/02/08 18:08:06;;;;;;;6.38;1.98;;;10.10;99.90;;;;;;4999019;28;25133;-69
2022/02/08 18:10:32;;;;;;;11.35;2.03;;;10.10;99.90;;;;;;5025307;28;25104;-70
2022/02/08 18:12:59;;;;;;;11.07;2.20;;;10.10;99.90;;;;;;4997336;28;25120;-69
2022/02/08 18:15:26;;;;;;;10.27;2.22;;;10.10;99.90;;;;;;5026902;28;25066;-69
2022/02/08 18:18:01;;;;;;;10.82;2.20;;;10.20;99.90;;;;;;4995351;28;25121;-69
2022/02/08 18:20:35;;;;;;;8.20;2.55;;;10.20;99.90;;;;;;5025310;28;25166;-69
2022/02/08 19:03:18;;;;;;;10.32;2.75;;;10.10;99.90;;;;;;5037630;28;25074;-70
2022/02/08 19:04:04;;;;;;;10.38;1.70;;;10.00;99.90;;;;;;5028583;28;25131;-70
2022/02/08 19:07:05;;;;;;;9.35;2.00;;;10.00;99.90;;;;;;5026038;28;25079;-69
2022/02/08 19:09:35;;;;;;;7.40;2.25;;;10.00;99.90;;;;;;5022538;28;25063;-68
2022/02/08 19:17:52;;;;;;;13.02;1.95;;;10.00;99.90;;;;;;5014385;28;25107;-70
2022/02/08 19:20:17;;;;;;;9.02;1.75;;;10.00;99.90;;;;;;5012171;28;25158;-68
2022/02/08 19:22:42;;;;;;;8.73;2.70;;;10.00;99.90;;;;;;5028785;28;25137;-68
2022/02/08 19:25:08;;;;;;;13.82;1.95;;;10.00;99.90;;;;;;5036685;28;25154;-69
2022/02/08 19:27:36;;;;;;;7.63;1.60;;;10.10;99.90;;;;;;5017431;28;25171;-69
2022/02/08 19:30:03;;;;;;;8.32;1.80;;;10.00;99.90;;;;;;5023705;28;25072;-71
2022/02/08 19:32:28;;;;;;;6.72;1.60;;;10.00;99.90;;;;;;5023241;28;25145;-68
2022/02/08 19:34:54;;;;;;;9.80;1.75;;;10.00;99.90;;;;;;5020615;28;25384;-68
2022/02/08 19:37:22;;;;;;;7.22;1.77;;;10.00;99.90;;;;;;5008935;28;25100;-68
2022/02/08 19:39:48;;;;;;;13.30;1.83;;;10.00;99.90;;;;;;5020024;28;25072;-69
2022/02/08 19:42:14;;;;;;;9.98;1.80;;;10.00;99.90;;;;;;5025497;28;25083;-70
2022/02/08 19:44:41;;;;;;;6.00;1.63;;;10.00;99.90;;;;;;5022921;28;25095;-69
2022/02/08 19:47:08;;;;;;;9.27;2.05;;;10.00;99.90;;;;;;5026113;28;25052;-70
2022/02/08 19:49:35;;;;;;;6.82;2.83;;;10.00;99.90;;;;;;5014695;28;25060;-68
2022/02/08 19:52:01;;;;;;;6.28;1.80;;;10.00;99.90;;;;;;5005655;28;25056;-70
2022/02/08 19:54:30;;;;;;;3.35;1.83;;;10.00;99.90;;;;;;5005746;28;25083;-68
2022/02/08 19:57:19;;;;;;;4.88;1.73;;;10.00;99.90;;;;;;5025410;28;25071;-69
2022/02/08 19:59:45;;;;;;;9.57;1.92;;;10.00;99.90;;;;;;5025397;28;25168;-69
2022/02/08 20:02:14;;;;;;;5.78;2.00;;;10.00;99.90;;;;;;4993183;28;25102;-69
2022/02/08 20:04:44;;;;;;;6.40;1.92;;;10.00;99.90;;;;;;4991923;28;25053;-69
2022/02/08 20:07:10;;;;;;;6.43;2.35;;;10.10;99.90;;;;;;5010923;28;25068;-69
2022/02/08 20:09:35;;;;;;;4.65;1.80;;;10.00;99.90;;;;;;5010038;28;25112;-69
2022/02/08 20:12:01;;;;;;;9.38;1.88;;;10.00;99.90;;;;;;4991664;28;25058;-69
2022/02/08 20:14:26;;;;;;;5.10;1.80;;;10.00;99.90;;;;;;5008881;28;25072;-69
2022/02/08 20:16:52;;;;;;;6.10;1.80;;;10.00;99.90;;;;;;5010412;28;25091;-69